sensor_id;sensor_type;location;lat;lon;timestamp;temperature;humidity
21216;DHT22;10765;50.954;5.322;2023-05-20T00:00:37;13.60;99.90
21216;DHT22;10765;50.954;5.322;2023-05-20T00:03:04;13.60;99.90
21216;DHT22;10765;50.954;5.322;2023-05-20T00:05:31;13.60;99.90
21216;DHT22;10765;50.954;5.322;2023-05-20T00:07:59;13.50;99.90
21216;DHT22;10765;50.954;5.322;2023-05-20T00:10:29;13.40;99.90
21216;DHT22;10765;50.954;5.322;2023-05-20T00:12:56;13.40;99.90
21216;DHT22;10765;50.954;5.322;2023-05-20T00:15:22;13.40;99.90
21216;DHT22;10765;50.954;5.322;2023-05-20T00:17:50;13.40;99.90
21216;DHT22;10765;50.954;5.322;2023-05-20T00:20:17;13.30;99.90
21216;DHT22;10765;50.954;5.322;2023-05-20T00:22:44;13.30;99.90
21216;DHT22;10765;50.954;5.322;2023-05-20T00:25:12;13.30;99.90
21216;DHT22;10765;50.954;5.322;2023-05-20T00:27:39;13.30;99.90
21216;DHT22;10765;50.954;5.322;2023-05-20T00:30:08;13.20;99.90
21216;DHT22;10765;50.954;5.322;2023-05-20T00:32:35;13.20;99.90
21216;DHT22;10765;50.954;5.322;2023-05-20T00:35:03;13.10;99.90
21216;DHT22;10765;50.954;5.322;2023-05-20T00:37:30;13.10;99.90
21216;DHT22;10765;50.954;5.322;2023-05-20T00:39:57;13.00;99.90
21216;DHT22;10765;50.954;5.322;2023-05-20T00:42:26;13.00;99.90
21216;DHT22;10765;50.954;5.322;2023-05-20T00:44:54;12.90;99.90
21216;DHT22;10765;50.954;5.322;2023-05-20T00:47:24;12.90;99.90
21216;DHT22;10765;50.954;5.322;2023-05-20T00:49:51;12.90;99.90
21216;DHT22;10765;50.954;5.322;2023-05-20T00:52:18;12.80;99.90
21216;DHT22;10765;50.954;5.322;2023-05-20T00:54:46;12.80;99.90
21216;DHT22;10765;50.954;5.322;2023-05-20T00:57:14;12.70;99.90
21216;DHT22;10765;50.954;5.322;2023-05-20T00:59:43;12.70;99.90
21216;DHT22;10765;50.954;5.322;2023-05-20T01:02:10;12.70;99.90
21216;DHT22;10765;50.954;5.322;2023-05-20T01:04:37;12.60;99.90
21216;DHT22;10765;50.954;5.322;2023-05-20T01:07:06;12.60;99.90
21216;DHT22;10765;50.954;5.322;2023-05-20T01:09:33;12.50;99.90
21216;DHT22;10765;50.954;5.322;2023-05-20T01:12:04;12.50;99.90
21216;DHT22;10765;50.954;5.322;2023-05-20T01:14:36;12.40;99.90
21216;DHT22;10765;50.954;5.322;2023-05-20T01:17:09;12.50;99.90
21216;DHT22;10765;50.954;5.322;2023-05-20T01:19:40;12.40;99.90
21216;DHT22;10765;50.954;5.322;2023-05-20T01:22:09;12.30;99.90
21216;DHT22;10765;50.954;5.322;2023-05-20T01:24:40;12.20;99.90
21216;DHT22;10765;50.954;5.322;2023-05-20T01:27:08;12.30;99.90
21216;DHT22;10765;50.954;5.322;2023-05-20T01:29:36;12.20;99.90
21216;DHT22;10765;50.954;5.322;2023-05-20T01:32:05;12.20;99.90
21216;DHT22;10765;50.954;5.322;2023-05-20T01:34:34;12.20;99.90
21216;DHT22;10765;50.954;5.322;2023-05-20T01:37:03;12.10;99.90
21216;DHT22;10765;50.954;5.322;2023-05-20T01:39:32;12.00;99.90
21216;DHT22;10765;50.954;5.322;2023-05-20T01:42:03;12.00;99.90
21216;DHT22;10765;50.954;5.322;2023-05-20T01:44:30;12.00;99.90
21216;DHT22;10765;50.954;5.322;2023-05-20T01:46:58;12.00;99.90
21216;DHT22;10765;50.954;5.322;2023-05-20T01:49:25;11.90;99.90
21216;DHT22;10765;50.954;5.322;2023-05-20T01:51:52;11.90;99.90
21216;DHT22;10765;50.954;5.322;2023-05-20T01:54:19;11.90;99.90
21216;DHT22;10765;50.954;5.322;2023-05-20T01:56:46;11.80;99.90
21216;DHT22;10765;50.954;5.322;2023-05-20T01:59:14;11.80;99.90
21216;DHT22;10765;50.954;5.322;2023-05-20T02:01:41;11.70;99.90
21216;DHT22;10765;50.954;5.322;2023-05-20T02:04:08;11.70;99.90
21216;DHT22;10765;50.954;5.322;2023-05-20T02:06:36;11.70;99.90
21216;DHT22;10765;50.954;5.322;2023-05-20T02:09:03;11.60;99.90
21216;DHT22;10765;50.954;5.322;2023-05-20T02:11:30;11.60;99.90
21216;DHT22;10765;50.954;5.322;2023-05-20T02:13:57;11.60;99.90
21216;DHT22;10765;50.954;5.322;2023-05-20T02:16:25;11.60;99.90
21216;DHT22;10765;50.954;5.322;2023-05-20T02:18:52;11.60;99.90
21216;DHT22;10765;50.954;5.322;2023-05-20T02:21:19;11.50;99.90
21216;DHT22;10765;50.954;5.322;2023-05-20T02:23:46;11.50;99.90
21216;DHT22;10765;50.954;5.322;2023-05-20T02:26:13;11.40;99.90
21216;DHT22;10765;50.954;5.322;2023-05-20T02:28:40;11.40;99.90
21216;DHT22;10765;50.954;5.322;2023-05-20T02:31:11;11.40;99.90
21216;DHT22;10765;50.954;5.322;2023-05-20T02:33:39;11.30;99.90
21216;DHT22;10765;50.954;5.322;2023-05-20T02:36:06;11.30;99.90
21216;DHT22;10765;50.954;5.322;2023-05-20T02:38:33;11.30;99.90
21216;DHT22;10765;50.954;5.322;2023-05-20T02:41:00;11.30;99.90
21216;DHT22;10765;50.954;5.322;2023-05-20T02:43:29;11.20;99.90
21216;DHT22;10765;50.954;5.322;2023-05-20T02:45:56;11.20;99.90
21216;DHT22;10765;50.954;5.322;2023-05-20T02:48:23;11.20;99.90
21216;DHT22;10765;50.954;5.322;2023-05-20T02:50:51;11.10;99.90
21216;DHT22;10765;50.954;5.322;2023-05-20T02:53:18;11.10;99.90
21216;DHT22;10765;50.954;5.322;2023-05-20T02:55:46;11.10;99.90
21216;DHT22;10765;50.954;5.322;2023-05-20T02:58:13;11.10;99.90
21216;DHT22;10765;50.954;5.322;2023-05-20T03:00:40;11.00;99.90
21216;DHT22;10765;50.954;5.322;2023-05-20T03:03:07;11.00;99.90
21216;DHT22;10765;50.954;5.322;2023-05-20T03:05:35;11.00;99.90
21216;DHT22;10765;50.954;5.322;2023-05-20T03:08:07;11.00;99.90
21216;DHT22;10765;50.954;5.322;2023-05-20T03:10:35;11.00;99.90
21216;DHT22;10765;50.954;5.322;2023-05-20T03:13:04;11.00;99.90
21216;DHT22;10765;50.954;5.322;2023-05-20T03:15:33;10.90;99.90
21216;DHT22;10765;50.954;5.322;2023-05-20T03:18:00;10.90;99.90
21216;DHT22;10765;50.954;5.322;2023-05-20T03:20:26;10.90;99.90
21216;DHT22;10765;50.954;5.322;2023-05-20T03:22:54;10.80;99.90
21216;DHT22;10765;50.954;5.322;2023-05-20T03:25:23;10.80;1.00
21216;DHT22;10765;50.954;5.322;2023-05-20T03:27:50;10.80;1.00
21216;DHT22;10765;50.954;5.322;2023-05-20T03:30:17;10.80;1.00
21216;DHT22;10765;50.954;5.322;2023-05-20T03:32:44;10.70;1.00
21216;DHT22;10765;50.954;5.322;2023-05-20T03:35:11;10.80;1.00
21216;DHT22;10765;50.954;5.322;2023-05-20T03:37:38;10.70;1.00
21216;DHT22;10765;50.954;5.322;2023-05-20T03:40:06;10.70;1.00
21216;DHT22;10765;50.954;5.322;2023-05-20T03:42:36;10.70;1.00
21216;DHT22;10765;50.954;5.322;2023-05-20T03:45:03;10.70;1.00
21216;DHT22;10765;50.954;5.322;2023-05-20T03:47:30;10.60;1.00
21216;DHT22;10765;50.954;5.322;2023-05-20T03:49:57;10.60;1.00
21216;DHT22;10765;50.954;5.322;2023-05-20T03:52:24;10.60;1.00
21216;DHT22;10765;50.954;5.322;2023-05-20T03:54:51;10.60;1.00
21216;DHT22;10765;50.954;5.322;2023-05-20T03:57:18;10.60;1.00
21216;DHT22;10765;50.954;5.322;2023-05-20T03:59:46;10.60;1.00
21216;DHT22;10765;50.954;5.322;2023-05-20T04:02:14;10.60;1.00
21216;DHT22;10765;50.954;5.322;2023-05-20T04:04:41;10.70;1.00
21216;DHT22;10765;50.954;5.322;2023-05-20T04:07:08;10.70;1.00
21216;DHT22;10765;50.954;5.322;2023-05-20T04:09:35;10.70;1.00
21216;DHT22;10765;50.954;5.322;2023-05-20T04:12:02;10.60;1.00
21216;DHT22;10765;50.954;5.322;2023-05-20T04:14:29;10.70;1.00
21216;DHT22;10765;50.954;5.322;2023-05-20T04:17:00;10.60;1.00
21216;DHT22;10765;50.954;5.322;2023-05-20T04:19:27;10.70;1.00
21216;DHT22;10765;50.954;5.322;2023-05-20T04:21:54;10.70;1.00
21216;DHT22;10765;50.954;5.322;2023-05-20T04:24:21;10.70;1.00
21216;DHT22;10765;50.954;5.322;2023-05-20T04:26:50;10.80;1.00
21216;DHT22;10765;50.954;5.322;2023-05-20T04:29:17;11.10;1.00
21216;DHT22;10765;50.954;5.322;2023-05-20T04:31:44;11.30;1.00
21216;DHT22;10765;50.954;5.322;2023-05-20T04:34:13;11.50;1.00
21216;DHT22;10765;50.954;5.322;2023-05-20T04:36:44;11.80;1.00
21216;DHT22;10765;50.954;5.322;2023-05-20T04:39:10;11.90;99.90
21216;DHT22;10765;50.954;5.322;2023-05-20T04:41:38;12.10;99.90
21216;DHT22;10765;50.954;5.322;2023-05-20T04:44:05;12.30;99.90
21216;DHT22;10765;50.954;5.322;2023-05-20T04:46:32;12.50;99.90
21216;DHT22;10765;50.954;5.322;2023-05-20T04:48:59;12.70;99.90
21216;DHT22;10765;50.954;5.322;2023-05-20T04:51:27;12.90;99.90
21216;DHT22;10765;50.954;5.322;2023-05-20T04:53:54;13.10;99.90
21216;DHT22;10765;50.954;5.322;2023-05-20T04:56:23;13.30;99.90
21216;DHT22;10765;50.954;5.322;2023-05-20T04:58:50;13.40;99.90
21216;DHT22;10765;50.954;5.322;2023-05-20T05:01:17;13.70;99.90
21216;DHT22;10765;50.954;5.322;2023-05-20T05:03:44;13.80;99.90
21216;DHT22;10765;50.954;5.322;2023-05-20T05:06:11;14.10;99.90
21216;DHT22;10765;50.954;5.322;2023-05-20T05:08:40;14.40;99.90
21216;DHT22;10765;50.954;5.322;2023-05-20T05:11:07;14.60;99.90
21216;DHT22;10765;50.954;5.322;2023-05-20T05:13:34;15.00;99.90
21216;DHT22;10765;50.954;5.322;2023-05-20T05:16:01;15.10;99.90
21216;DHT22;10765;50.954;5.322;2023-05-20T05:18:28;15.30;99.90
21216;DHT22;10765;50.954;5.322;2023-05-20T05:21:00;15.40;99.90
21216;DHT22;10765;50.954;5.322;2023-05-20T05:23:27;15.50;99.90
21216;DHT22;10765;50.954;5.322;2023-05-20T05:25:55;15.60;99.90
21216;DHT22;10765;50.954;5.322;2023-05-20T05:28:22;15.90;99.90
21216;DHT22;10765;50.954;5.322;2023-05-20T05:30:49;16.30;99.90
21216;DHT22;10765;50.954;5.322;2023-05-20T05:33:16;16.30;99.90
21216;DHT22;10765;50.954;5.322;2023-05-20T05:35:43;16.60;99.90
21216;DHT22;10765;50.954;5.322;2023-05-20T05:38:10;16.70;99.90
21216;DHT22;10765;50.954;5.322;2023-05-20T05:40:37;16.80;99.90
21216;DHT22;10765;50.954;5.322;2023-05-20T05:43:05;17.20;99.90
21216;DHT22;10765;50.954;5.322;2023-05-20T05:45:32;17.10;99.90
21216;DHT22;10765;50.954;5.322;2023-05-20T05:47:59;17.40;99.90
21216;DHT22;10765;50.954;5.322;2023-05-20T05:50:26;17.70;99.90
21216;DHT22;10765;50.954;5.322;2023-05-20T05:52:54;17.80;99.90
21216;DHT22;10765;50.954;5.322;2023-05-20T05:55:21;18.00;99.90
21216;DHT22;10765;50.954;5.322;2023-05-20T05:57:48;17.80;99.80
21216;DHT22;10765;50.954;5.322;2023-05-20T06:00:17;18.40;94.00
21216;DHT22;10765;50.954;5.322;2023-05-20T06:02:44;18.80;69.30
21216;DHT22;10765;50.954;5.322;2023-05-20T06:05:11;18.70;61.50
21216;DHT22;10765;50.954;5.322;2023-05-20T06:07:38;18.70;72.30
21216;DHT22;10765;50.954;5.322;2023-05-20T06:10:05;19.20;55.80
21216;DHT22;10765;50.954;5.322;2023-05-20T06:12:32;19.50;41.20
21216;DHT22;10765;50.954;5.322;2023-05-20T06:14:59;20.10;23.40
21216;DHT22;10765;50.954;5.322;2023-05-20T06:17:27;20.10;18.50
21216;DHT22;10765;50.954;5.322;2023-05-20T06:19:54;20.30;15.00
21216;DHT22;10765;50.954;5.322;2023-05-20T06:22:21;20.50;8.60
21216;DHT22;10765;50.954;5.322;2023-05-20T06:24:48;20.80;1.00
21216;DHT22;10765;50.954;5.322;2023-05-20T06:27:15;21.60;1.00
21216;DHT22;10765;50.954;5.322;2023-05-20T06:29:42;22.20;1.00
21216;DHT22;10765;50.954;5.322;2023-05-20T06:32:08;22.20;1.00
21216;DHT22;10765;50.954;5.322;2023-05-20T06:34:37;20.90;1.00
21216;DHT22;10765;50.954;5.322;2023-05-20T06:37:04;20.50;1.00
21216;DHT22;10765;50.954;5.322;2023-05-20T06:39:31;20.80;1.00
21216;DHT22;10765;50.954;5.322;2023-05-20T06:41:58;21.30;1.00
21216;DHT22;10765;50.954;5.322;2023-05-20T06:44:24;21.60;1.00
21216;DHT22;10765;50.954;5.322;2023-05-20T06:46:51;20.60;1.00
21216;DHT22;10765;50.954;5.322;2023-05-20T06:49:18;20.30;12.90
21216;DHT22;10765;50.954;5.322;2023-05-20T06:51:47;20.40;14.00
21216;DHT22;10765;50.954;5.322;2023-05-20T06:54:14;20.90;3.00
21216;DHT22;10765;50.954;5.322;2023-05-20T06:56:41;21.30;1.00
21216;DHT22;10765;50.954;5.322;2023-05-20T06:59:08;21.70;1.00
21216;DHT22;10765;50.954;5.322;2023-05-20T07:01:35;22.00;1.00
21216;DHT22;10765;50.954;5.322;2023-05-20T07:04:04;22.70;1.00
21216;DHT22;10765;50.954;5.322;2023-05-20T07:06:31;22.30;1.00
21216;DHT22;10765;50.954;5.322;2023-05-20T07:08:59;21.70;1.00
21216;DHT22;10765;50.954;5.322;2023-05-20T07:11:26;22.20;1.00
21216;DHT22;10765;50.954;5.322;2023-05-20T07:13:53;22.20;1.00
21216;DHT22;10765;50.954;5.322;2023-05-20T07:16:20;22.10;1.00
21216;DHT22;10765;50.954;5.322;2023-05-20T07:18:47;21.80;1.00
21216;DHT22;10765;50.954;5.322;2023-05-20T07:21:14;21.80;1.00
21216;DHT22;10765;50.954;5.322;2023-05-20T07:23:41;22.70;1.00
21216;DHT22;10765;50.954;5.322;2023-05-20T07:26:09;21.90;1.00
21216;DHT22;10765;50.954;5.322;2023-05-20T07:28:37;21.20;1.00
21216;DHT22;10765;50.954;5.322;2023-05-20T07:31:04;22.20;1.00
21216;DHT22;10765;50.954;5.322;2023-05-20T07:33:31;22.60;1.00
21216;DHT22;10765;50.954;5.322;2023-05-20T07:35:58;23.70;1.00
21216;DHT22;10765;50.954;5.322;2023-05-20T07:38:25;24.60;1.00
21216;DHT22;10765;50.954;5.322;2023-05-20T07:40:52;24.30;1.00
21216;DHT22;10765;50.954;5.322;2023-05-20T07:43:20;24.00;1.00
21216;DHT22;10765;50.954;5.322;2023-05-20T07:45:47;23.60;1.00
21216;DHT22;10765;50.954;5.322;2023-05-20T07:48:14;24.00;1.00
21216;DHT22;10765;50.954;5.322;2023-05-20T07:50:41;22.80;1.00
21216;DHT22;10765;50.954;5.322;2023-05-20T07:53:08;21.50;1.00
21216;DHT22;10765;50.954;5.322;2023-05-20T07:55:35;21.40;2.50
21216;DHT22;10765;50.954;5.322;2023-05-20T07:58:02;22.10;1.00
21216;DHT22;10765;50.954;5.322;2023-05-20T08:00:30;23.20;1.00
21216;DHT22;10765;50.954;5.322;2023-05-20T08:02:57;23.10;1.00
21216;DHT22;10765;50.954;5.322;2023-05-20T08:05:24;23.60;1.00
21216;DHT22;10765;50.954;5.322;2023-05-20T08:07:51;23.50;1.00
21216;DHT22;10765;50.954;5.322;2023-05-20T08:10:18;24.00;1.00
21216;DHT22;10765;50.954;5.322;2023-05-20T08:12:45;24.30;1.00
21216;DHT22;10765;50.954;5.322;2023-05-20T08:15:12;24.50;1.00
21216;DHT22;10765;50.954;5.322;2023-05-20T08:17:41;24.50;1.00
21216;DHT22;10765;50.954;5.322;2023-05-20T08:20:08;24.50;1.00
21216;DHT22;10765;50.954;5.322;2023-05-20T08:22:37;25.10;1.00
21216;DHT22;10765;50.954;5.322;2023-05-20T08:25:07;25.50;1.00
21216;DHT22;10765;50.954;5.322;2023-05-20T08:27:34;26.00;1.00
21216;DHT22;10765;50.954;5.322;2023-05-20T08:30:01;26.30;1.00
21216;DHT22;10765;50.954;5.322;2023-05-20T08:32:28;26.50;1.00
21216;DHT22;10765;50.954;5.322;2023-05-20T08:34:57;26.80;1.00
21216;DHT22;10765;50.954;5.322;2023-05-20T08:37:26;26.30;1.00
21216;DHT22;10765;50.954;5.322;2023-05-20T08:39:53;25.80;1.00
21216;DHT22;10765;50.954;5.322;2023-05-20T08:42:22;25.60;1.00
21216;DHT22;10765;50.954;5.322;2023-05-20T08:44:50;25.10;1.00
21216;DHT22;10765;50.954;5.322;2023-05-20T08:47:18;25.90;1.00
21216;DHT22;10765;50.954;5.322;2023-05-20T08:49:46;26.50;1.00
21216;DHT22;10765;50.954;5.322;2023-05-20T08:52:15;25.80;1.00
21216;DHT22;10765;50.954;5.322;2023-05-20T08:54:45;26.20;1.00
21216;DHT22;10765;50.954;5.322;2023-05-20T08:57:12;26.70;1.00
21216;DHT22;10765;50.954;5.322;2023-05-20T08:59:41;27.90;1.00
21216;DHT22;10765;50.954;5.322;2023-05-20T09:02:09;28.40;1.00
21216;DHT22;10765;50.954;5.322;2023-05-20T09:04:36;27.60;1.00
21216;DHT22;10765;50.954;5.322;2023-05-20T09:07:03;27.50;1.00
21216;DHT22;10765;50.954;5.322;2023-05-20T09:09:33;28.00;1.00
21216;DHT22;10765;50.954;5.322;2023-05-20T09:12:00;28.00;1.00
21216;DHT22;10765;50.954;5.322;2023-05-20T09:14:28;27.10;1.00
21216;DHT22;10765;50.954;5.322;2023-05-20T09:16:55;26.80;1.00
21216;DHT22;10765;50.954;5.322;2023-05-20T09:19:22;26.70;1.00
21216;DHT22;10765;50.954;5.322;2023-05-20T09:21:52;26.70;1.00
21216;DHT22;10765;50.954;5.322;2023-05-20T09:24:22;26.40;1.00
21216;DHT22;10765;50.954;5.322;2023-05-20T09:26:51;26.90;1.00
21216;DHT22;10765;50.954;5.322;2023-05-20T09:29:18;27.30;1.00
21216;DHT22;10765;50.954;5.322;2023-05-20T09:31:46;27.20;1.00
21216;DHT22;10765;50.954;5.322;2023-05-20T09:34:13;27.30;1.00
21216;DHT22;10765;50.954;5.322;2023-05-20T09:36:42;28.20;1.00
21216;DHT22;10765;50.954;5.322;2023-05-20T09:39:12;27.60;1.00
21216;DHT22;10765;50.954;5.322;2023-05-20T09:41:46;26.90;1.00
21216;DHT22;10765;50.954;5.322;2023-05-20T09:44:16;27.00;1.00
21216;DHT22;10765;50.954;5.322;2023-05-20T09:46:45;26.50;1.00
21216;DHT22;10765;50.954;5.322;2023-05-20T09:49:12;27.00;1.00
21216;DHT22;10765;50.954;5.322;2023-05-20T09:51:41;27.30;1.00
21216;DHT22;10765;50.954;5.322;2023-05-20T09:54:11;27.90;1.00
21216;DHT22;10765;50.954;5.322;2023-05-20T09:56:40;28.00;1.00
21216;DHT22;10765;50.954;5.322;2023-05-20T09:59:08;28.20;1.00
21216;DHT22;10765;50.954;5.322;2023-05-20T10:01:37;28.00;1.00
21216;DHT22;10765;50.954;5.322;2023-05-20T10:04:05;28.70;1.00
21216;DHT22;10765;50.954;5.322;2023-05-20T10:06:49;28.90;1.00
21216;DHT22;10765;50.954;5.322;2023-05-20T10:09:36;29.60;1.00
21216;DHT22;10765;50.954;5.322;2023-05-20T10:12:18;29.60;1.00
21216;DHT22;10765;50.954;5.322;2023-05-20T10:14:55;29.80;1.00
21216;DHT22;10765;50.954;5.322;2023-05-20T10:17:30;30.90;1.00
21216;DHT22;10765;50.954;5.322;2023-05-20T10:20:01;29.80;1.00
21216;DHT22;10765;50.954;5.322;2023-05-20T10:22:29;30.00;1.00
21216;DHT22;10765;50.954;5.322;2023-05-20T10:25:03;30.80;1.00
21216;DHT22;10765;50.954;5.322;2023-05-20T10:27:41;30.80;1.00
21216;DHT22;10765;50.954;5.322;2023-05-20T10:30:15;31.30;1.00
21216;DHT22;10765;50.954;5.322;2023-05-20T10:32:51;31.50;1.00
21216;DHT22;10765;50.954;5.322;2023-05-20T10:35:21;31.00;1.00
21216;DHT22;10765;50.954;5.322;2023-05-20T10:37:51;32.10;1.00
21216;DHT22;10765;50.954;5.322;2023-05-20T10:40:19;32.10;1.00
21216;DHT22;10765;50.954;5.322;2023-05-20T10:42:47;32.80;1.00
21216;DHT22;10765;50.954;5.322;2023-05-20T10:45:24;32.30;1.00
21216;DHT22;10765;50.954;5.322;2023-05-20T10:47:54;31.80;1.00
21216;DHT22;10765;50.954;5.322;2023-05-20T10:50:33;32.40;1.00
21216;DHT22;10765;50.954;5.322;2023-05-20T10:53:04;32.90;1.00
21216;DHT22;10765;50.954;5.322;2023-05-20T10:55:45;33.00;1.00
21216;DHT22;10765;50.954;5.322;2023-05-20T10:58:14;32.40;1.00
21216;DHT22;10765;50.954;5.322;2023-05-20T11:00:41;33.10;1.00
21216;DHT22;10765;50.954;5.322;2023-05-20T11:03:10;33.40;1.00
21216;DHT22;10765;50.954;5.322;2023-05-20T11:05:38;32.80;1.00
21216;DHT22;10765;50.954;5.322;2023-05-20T11:08:07;33.70;1.00
21216;DHT22;10765;50.954;5.322;2023-05-20T11:10:34;30.20;1.00
21216;DHT22;10765;50.954;5.322;2023-05-20T11:13:02;29.00;1.00
21216;DHT22;10765;50.954;5.322;2023-05-20T11:15:30;30.60;1.00
21216;DHT22;10765;50.954;5.322;2023-05-20T11:18:00;30.30;1.00
21216;DHT22;10765;50.954;5.322;2023-05-20T11:20:29;32.20;1.00
21216;DHT22;10765;50.954;5.322;2023-05-20T11:23:00;32.70;1.00
21216;DHT22;10765;50.954;5.322;2023-05-20T11:25:27;32.80;1.00
21216;DHT22;10765;50.954;5.322;2023-05-20T11:27:54;32.60;1.00
21216;DHT22;10765;50.954;5.322;2023-05-20T11:30:21;30.30;1.00
21216;DHT22;10765;50.954;5.322;2023-05-20T11:32:59;29.20;1.00
21216;DHT22;10765;50.954;5.322;2023-05-20T11:35:29;28.20;1.00
21216;DHT22;10765;50.954;5.322;2023-05-20T11:38:00;28.70;1.00
21216;DHT22;10765;50.954;5.322;2023-05-20T11:40:28;28.70;1.00
21216;DHT22;10765;50.954;5.322;2023-05-20T11:42:56;30.80;1.00
21216;DHT22;10765;50.954;5.322;2023-05-20T11:45:23;30.20;1.00
21216;DHT22;10765;50.954;5.322;2023-05-20T11:47:58;31.10;1.00
21216;DHT22;10765;50.954;5.322;2023-05-20T11:50:25;30.30;1.00
21216;DHT22;10765;50.954;5.322;2023-05-20T11:53:02;30.00;1.00
21216;DHT22;10765;50.954;5.322;2023-05-20T11:55:30;32.10;1.00
21216;DHT22;10765;50.954;5.322;2023-05-20T11:57:58;32.00;1.00
21216;DHT22;10765;50.954;5.322;2023-05-20T12:00:25;34.20;1.00
21216;DHT22;10765;50.954;5.322;2023-05-20T12:02:53;33.60;1.00
21216;DHT22;10765;50.954;5.322;2023-05-20T12:05:19;33.70;1.00
21216;DHT22;10765;50.954;5.322;2023-05-20T12:07:46;32.70;1.00
21216;DHT22;10765;50.954;5.322;2023-05-20T12:10:15;31.00;1.00
21216;DHT22;10765;50.954;5.322;2023-05-20T12:12:43;31.70;1.00
21216;DHT22;10765;50.954;5.322;2023-05-20T12:15:10;31.50;1.00
21216;DHT22;10765;50.954;5.322;2023-05-20T12:17:44;32.90;1.00
21216;DHT22;10765;50.954;5.322;2023-05-20T12:20:12;31.80;1.00
21216;DHT22;10765;50.954;5.322;2023-05-20T12:22:40;31.80;1.00
21216;DHT22;10765;50.954;5.322;2023-05-20T12:25:07;33.90;1.00
21216;DHT22;10765;50.954;5.322;2023-05-20T12:27:35;32.90;1.00
21216;DHT22;10765;50.954;5.322;2023-05-20T12:30:03;33.90;1.00
21216;DHT22;10765;50.954;5.322;2023-05-20T12:32:30;34.30;1.00
21216;DHT22;10765;50.954;5.322;2023-05-20T12:34:57;34.80;1.00
21216;DHT22;10765;50.954;5.322;2023-05-20T12:37:24;33.80;1.00
21216;DHT22;10765;50.954;5.322;2023-05-20T12:39:51;34.30;1.00
21216;DHT22;10765;50.954;5.322;2023-05-20T12:42:18;33.90;1.00
21216;DHT22;10765;50.954;5.322;2023-05-20T12:44:46;32.70;1.00
21216;DHT22;10765;50.954;5.322;2023-05-20T12:47:14;33.10;1.00
21216;DHT22;10765;50.954;5.322;2023-05-20T12:49:41;34.10;1.00
21216;DHT22;10765;50.954;5.322;2023-05-20T12:52:07;32.80;1.00
21216;DHT22;10765;50.954;5.322;2023-05-20T12:54:34;32.10;1.00
21216;DHT22;10765;50.954;5.322;2023-05-20T12:57:01;30.70;1.00
21216;DHT22;10765;50.954;5.322;2023-05-20T12:59:28;31.80;1.00
21216;DHT22;10765;50.954;5.322;2023-05-20T13:01:56;32.60;1.00
21216;DHT22;10765;50.954;5.322;2023-05-20T13:04:23;32.30;1.00
21216;DHT22;10765;50.954;5.322;2023-05-20T13:06:50;29.50;1.00
21216;DHT22;10765;50.954;5.322;2023-05-20T13:09:17;28.50;1.00
21216;DHT22;10765;50.954;5.322;2023-05-20T13:11:44;29.90;1.00
21216;DHT22;10765;50.954;5.322;2023-05-20T13:14:11;28.70;1.00
21216;DHT22;10765;50.954;5.322;2023-05-20T13:16:38;28.60;1.00
21216;DHT22;10765;50.954;5.322;2023-05-20T13:19:06;30.20;1.00
21216;DHT22;10765;50.954;5.322;2023-05-20T13:21:33;31.20;1.00
21216;DHT22;10765;50.954;5.322;2023-05-20T13:24:00;30.80;1.00
21216;DHT22;10765;50.954;5.322;2023-05-20T13:26:27;30.90;1.00
21216;DHT22;10765;50.954;5.322;2023-05-20T13:28:54;31.10;1.00
21216;DHT22;10765;50.954;5.322;2023-05-20T13:31:21;30.30;1.00
21216;DHT22;10765;50.954;5.322;2023-05-20T13:33:47;30.50;1.00
21216;DHT22;10765;50.954;5.322;2023-05-20T13:36:16;28.00;1.00
21216;DHT22;10765;50.954;5.322;2023-05-20T13:38:43;25.50;1.00
21216;DHT22;10765;50.954;5.322;2023-05-20T13:41:16;24.00;1.00
21216;DHT22;10765;50.954;5.322;2023-05-20T13:43:43;23.10;1.00
21216;DHT22;10765;50.954;5.322;2023-05-20T13:46:10;22.70;1.00
21216;DHT22;10765;50.954;5.322;2023-05-20T13:48:37;22.80;1.00
21216;DHT22;10765;50.954;5.322;2023-05-20T13:51:04;22.50;1.00
21216;DHT22;10765;50.954;5.322;2023-05-20T13:53:32;22.60;1.00
21216;DHT22;10765;50.954;5.322;2023-05-20T13:55:59;22.50;1.00
21216;DHT22;10765;50.954;5.322;2023-05-20T13:58:26;22.80;1.00
21216;DHT22;10765;50.954;5.322;2023-05-20T14:00:53;23.20;1.00
21216;DHT22;10765;50.954;5.322;2023-05-20T14:03:20;23.40;1.00
21216;DHT22;10765;50.954;5.322;2023-05-20T14:05:47;23.30;1.00
21216;DHT22;10765;50.954;5.322;2023-05-20T14:08:14;22.70;1.00
21216;DHT22;10765;50.954;5.322;2023-05-20T14:10:42;22.60;1.80
21216;DHT22;10765;50.954;5.322;2023-05-20T14:13:09;22.80;1.00
21216;DHT22;10765;50.954;5.322;2023-05-20T14:15:36;22.30;1.80
21216;DHT22;10765;50.954;5.322;2023-05-20T14:18:03;22.30;8.60
21216;DHT22;10765;50.954;5.322;2023-05-20T14:20:30;21.80;21.80
21216;DHT22;10765;50.954;5.322;2023-05-20T14:22:57;21.60;28.60
21216;DHT22;10765;50.954;5.322;2023-05-20T14:25:25;21.80;26.00
21216;DHT22;10765;50.954;5.322;2023-05-20T14:27:53;21.90;19.40
21216;DHT22;10765;50.954;5.322;2023-05-20T14:30:20;21.80;21.20
21216;DHT22;10765;50.954;5.322;2023-05-20T14:32:47;22.20;14.60
21216;DHT22;10765;50.954;5.322;2023-05-20T14:35:14;22.60;1.30
21216;DHT22;10765;50.954;5.322;2023-05-20T14:37:42;22.50;1.00
21216;DHT22;10765;50.954;5.322;2023-05-20T14:40:10;22.20;7.40
21216;DHT22;10765;50.954;5.322;2023-05-20T14:42:37;21.80;15.40
21216;DHT22;10765;50.954;5.322;2023-05-20T14:45:06;21.70;22.40
21216;DHT22;10765;50.954;5.322;2023-05-20T14:47:34;21.40;25.90
21216;DHT22;10765;50.954;5.322;2023-05-20T14:50:01;21.50;27.00
21216;DHT22;10765;50.954;5.322;2023-05-20T14:52:28;21.70;21.70
21216;DHT22;10765;50.954;5.322;2023-05-20T14:54:54;21.30;27.40
21216;DHT22;10765;50.954;5.322;2023-05-20T14:57:22;21.40;29.00
21216;DHT22;10765;50.954;5.322;2023-05-20T14:59:49;21.70;20.20
21216;DHT22;10765;50.954;5.322;2023-05-20T15:02:18;22.10;9.50
21216;DHT22;10765;50.954;5.322;2023-05-20T15:04:45;22.10;5.70
21216;DHT22;10765;50.954;5.322;2023-05-20T15:07:16;21.80;10.60
21216;DHT22;10765;50.954;5.322;2023-05-20T15:09:43;21.80;12.70
21216;DHT22;10765;50.954;5.322;2023-05-20T15:12:10;21.90;10.50
21216;DHT22;10765;50.954;5.322;2023-05-20T15:14:37;21.80;7.50
21216;DHT22;10765;50.954;5.322;2023-05-20T15:17:04;21.90;5.10
21216;DHT22;10765;50.954;5.322;2023-05-20T15:19:32;22.20;1.20
21216;DHT22;10765;50.954;5.322;2023-05-20T15:22:00;22.40;1.00
21216;DHT22;10765;50.954;5.322;2023-05-20T15:24:27;22.50;1.00
21216;DHT22;10765;50.954;5.322;2023-05-20T15:26:54;22.30;1.00
21216;DHT22;10765;50.954;5.322;2023-05-20T15:29:21;21.80;1.30
21216;DHT22;10765;50.954;5.322;2023-05-20T15:31:48;21.50;14.40
21216;DHT22;10765;50.954;5.322;2023-05-20T15:34:15;21.20;21.30
21216;DHT22;10765;50.954;5.322;2023-05-20T15:36:43;21.30;21.50
21216;DHT22;10765;50.954;5.322;2023-05-20T15:39:10;21.40;15.40
21216;DHT22;10765;50.954;5.322;2023-05-20T15:41:37;21.70;8.90
21216;DHT22;10765;50.954;5.322;2023-05-20T15:44:06;21.80;3.00